createdAt,value
2018-05-18T00:01:01.315Z,33.30
2018-05-18T00:03:28.787Z,44.23
2018-05-18T00:05:56.183Z,39.57
2018-05-18T00:08:23.586Z,31.00
2018-05-18T00:10:51.564Z,30.90
2018-05-18T00:13:18.956Z,36.13
2018-05-18T00:15:46.359Z,34.37
2018-05-18T00:18:13.761Z,36.20
2018-05-18T00:20:41.176Z,34.80
2018-05-18T00:23:08.605Z,43.10
2018-05-18T00:25:35.988Z,38.50
2018-05-18T00:28:03.454Z,37.80
2018-05-18T00:30:30.848Z,35.50
2018-05-18T00:32:58.232Z,39.63
2018-05-18T00:35:26.465Z,42.65
2018-05-18T00:37:53.845Z,45.87
2018-05-18T00:40:21.244Z,38.37
2018-05-18T00:42:48.643Z,46.37
2018-05-18T00:45:16.040Z,51.70
2018-05-18T00:47:43.436Z,42.50
2018-05-18T00:50:10.844Z,43.80
2018-05-18T00:52:38.234Z,44.40
2018-05-18T00:55:17.460Z,45.43
2018-05-18T00:57:44.907Z,48.80
2018-05-18T01:00:12.304Z,43.37
2018-05-18T01:02:39.701Z,40.43
2018-05-18T01:05:07.099Z,41.03
2018-05-18T01:10:08.309Z,40.03
2018-05-18T01:12:35.704Z,39.78
2018-05-18T01:15:03.134Z,40.80
2018-05-18T01:17:30.521Z,45.97
2018-05-18T01:19:57.923Z,43.00
2018-05-18T01:22:25.321Z,50.70
2018-05-18T01:24:52.800Z,38.78
2018-05-18T01:27:20.183Z,48.37
2018-05-18T01:29:47.584Z,52.20
2018-05-18T01:32:14.972Z,43.80
2018-05-18T01:34:42.414Z,43.53
2018-05-18T01:37:09.803Z,42.23
2018-05-18T01:39:37.712Z,38.55
2018-05-18T01:42:05.110Z,37.43
2018-05-18T01:44:32.728Z,46.17
2018-05-18T01:47:00.119Z,46.50
2018-05-18T01:49:27.510Z,43.40
2018-05-18T01:51:54.972Z,41.83
2018-05-18T01:54:22.361Z,40.83
2018-05-18T01:56:49.748Z,47.53
2018-05-18T01:59:17.848Z,39.03
2018-05-18T02:01:45.302Z,36.00
2018-05-18T02:04:12.691Z,39.30
2018-05-18T02:06:40.093Z,41.78
2018-05-18T02:09:07.475Z,50.37
2018-05-18T02:11:34.887Z,47.10
2018-05-18T02:14:02.271Z,44.88
2018-05-18T02:16:29.673Z,42.67
2018-05-18T02:18:57.354Z,40.03
2018-05-18T02:21:24.756Z,31.97
2018-05-18T02:23:52.147Z,41.73
2018-05-18T02:26:19.562Z,36.30
2018-05-18T02:28:46.966Z,35.83
2018-05-18T02:31:14.361Z,30.07
2018-05-18T02:33:41.758Z,40.60
2018-05-18T02:36:09.247Z,43.40
2018-05-18T02:38:36.632Z,35.57
2018-05-18T02:41:04.037Z,29.63
2018-05-18T02:43:31.432Z,46.50
2018-05-18T02:45:58.921Z,28.63
2018-05-18T02:48:26.309Z,31.97
2018-05-18T02:50:53.705Z,31.20
2018-05-18T02:53:21.107Z,35.63
2018-05-18T02:55:48.495Z,38.60
2018-05-18T02:58:15.903Z,30.33
2018-05-18T03:00:43.297Z,33.00
2018-05-18T03:03:10.741Z,31.13
2018-05-18T03:05:38.159Z,32.43
2018-05-18T03:08:05.561Z,42.67
2018-05-18T03:10:32.949Z,34.47
2018-05-18T03:13:01.494Z,37.53
2018-05-18T03:15:28.883Z,33.27
2018-05-18T03:17:56.271Z,38.72
2018-05-18T03:20:23.686Z,30.62
2018-05-18T03:22:51.351Z,34.47
2018-05-18T03:25:18.741Z,33.40
2018-05-18T03:27:46.147Z,31.03
2018-05-18T03:30:13.641Z,39.70
2018-05-18T03:32:41.040Z,28.20
2018-05-18T03:35:08.428Z,35.80
2018-05-18T03:37:35.823Z,31.63
2018-05-18T03:40:04.018Z,30.67
2018-05-18T03:42:32.416Z,27.50
2018-05-18T03:45:00.488Z,37.43
2018-05-18T03:47:27.887Z,39.23
2018-05-18T03:49:55.272Z,43.03
2018-05-18T03:52:22.677Z,32.30
2018-05-18T03:54:50.207Z,38.30
2018-05-18T03:57:17.623Z,35.95
2018-05-18T03:59:45.014Z,38.00
2018-05-18T04:02:24.219Z,33.70
2018-05-18T04:08:04.746Z,27.77
2018-05-18T04:10:32.141Z,42.10
2018-05-18T04:12:59.770Z,34.43
2018-05-18T04:15:27.155Z,26.60
2018-05-18T04:17:54.569Z,27.90
2018-05-18T04:20:22.030Z,29.63
2018-05-18T04:22:49.490Z,26.93
2018-05-18T04:25:16.904Z,31.73
2018-05-18T04:27:44.309Z,28.47
2018-05-18T04:30:11.808Z,29.17
2018-05-18T04:35:18.752Z,24.47
2018-05-18T04:37:47.092Z,28.95
2018-05-18T04:40:14.509Z,18.33
2018-05-18T04:42:41.969Z,25.80
2018-05-18T04:45:09.375Z,24.03
2018-05-18T04:47:36.817Z,25.10
2018-05-18T04:50:04.765Z,23.42
2018-05-18T04:52:32.173Z,28.53
2018-05-18T04:54:59.568Z,27.23
2018-05-18T04:57:27.213Z,20.87
2018-05-18T04:59:54.689Z,25.90
2018-05-18T05:02:22.155Z,23.83
2018-05-18T05:04:49.642Z,27.40
2018-05-18T05:07:17.106Z,24.47
2018-05-18T05:09:44.583Z,28.30
2018-05-18T05:12:12.760Z,25.15
2018-05-18T05:14:40.351Z,28.67
2018-05-18T05:17:08.213Z,18.93
2018-05-18T05:19:35.889Z,20.45
2018-05-18T05:22:03.370Z,33.80
2018-05-18T05:24:30.767Z,19.97
2018-05-18T05:26:58.176Z,20.10
2018-05-18T05:29:25.606Z,20.33
2018-05-18T05:31:53.007Z,18.73
2018-05-18T05:34:20.419Z,20.40
2018-05-18T05:36:47.857Z,23.00
2018-05-18T05:39:15.303Z,23.50
2018-05-18T05:41:42.708Z,21.03
2018-05-18T05:44:10.105Z,20.30
2018-05-18T05:46:37.520Z,23.73
2018-05-18T05:49:04.942Z,23.30
2018-05-18T05:51:32.343Z,22.37
2018-05-18T05:53:59.744Z,28.40
2018-05-18T05:56:27.168Z,12.85
2018-05-18T05:58:54.639Z,17.63
2018-05-18T06:01:22.037Z,29.50
2018-05-18T06:03:49.443Z,26.77
2018-05-18T06:06:17.032Z,24.37
2018-05-18T06:08:44.421Z,21.47
2018-05-18T06:11:11.822Z,21.12
2018-05-18T06:13:39.240Z,19.20
2018-05-18T06:16:06.852Z,22.40
2018-05-18T06:18:34.240Z,18.33
2018-05-18T06:21:01.776Z,19.20
2018-05-18T06:23:29.249Z,23.62
2018-05-18T06:25:56.644Z,22.10
2018-05-18T06:28:24.030Z,22.90
2018-05-18T06:30:51.427Z,22.60
2018-05-18T06:33:19.039Z,24.63
2018-05-18T06:35:46.449Z,29.70
2018-05-18T06:38:13.835Z,28.70
2018-05-18T06:40:41.250Z,21.13
2018-05-18T06:43:09.191Z,20.92
2018-05-18T06:45:36.597Z,30.67
2018-05-18T06:48:04.010Z,22.65
2018-05-18T06:50:31.596Z,25.00
2018-05-18T06:52:59.003Z,26.80
2018-05-18T06:55:26.395Z,22.30
2018-05-18T06:57:53.800Z,23.10
2018-05-18T07:00:21.801Z,27.80
2018-05-18T07:02:49.208Z,24.65
2018-05-18T07:05:16.599Z,20.40
2018-05-18T07:07:44.019Z,21.40
2018-05-18T07:10:11.451Z,29.43
2018-05-18T07:12:38.848Z,19.30
2018-05-18T07:15:06.235Z,20.77
2018-05-18T07:17:33.651Z,23.30
2018-05-18T07:20:01.101Z,25.60
2018-05-18T07:22:28.507Z,22.50
2018-05-18T07:24:55.892Z,24.50
2018-05-18T07:27:23.354Z,19.67
2018-05-18T07:29:50.753Z,23.07
2018-05-18T07:32:18.156Z,26.13
2018-05-18T07:34:45.540Z,25.13
2018-05-18T07:37:13.059Z,24.07
2018-05-18T07:39:40.456Z,22.90
2018-05-18T07:42:07.876Z,33.63
2018-05-18T07:44:35.308Z,22.30
2018-05-18T07:47:02.932Z,20.20
2018-05-18T07:49:30.325Z,21.77
2018-05-18T07:51:57.738Z,22.35
2018-05-18T07:54:25.259Z,24.03
2018-05-18T07:56:53.234Z,20.17
2018-05-18T07:59:20.657Z,30.40
2018-05-18T08:01:48.397Z,18.80
2018-05-18T08:04:15.788Z,24.20
2018-05-18T08:06:43.189Z,27.53
2018-05-18T08:09:10.604Z,20.30
2018-05-18T08:11:37.996Z,21.73
2018-05-18T08:14:05.398Z,28.63
2018-05-18T08:16:32.793Z,22.63
2018-05-18T08:19:00.648Z,22.55
2018-05-18T08:21:28.286Z,22.00
2018-05-18T08:23:55.601Z,22.27
2018-05-18T08:26:22.992Z,26.10
2018-05-18T08:29:02.308Z,20.83
2018-05-18T08:31:29.753Z,18.90
2018-05-18T08:33:57.154Z,24.83
2018-05-18T08:36:24.545Z,25.50
2018-05-18T08:38:52.119Z,24.60
2018-05-18T08:41:19.510Z,27.95
2018-05-18T08:43:46.908Z,24.13
2018-05-18T08:46:15.403Z,24.40
2018-05-18T08:48:42.810Z,16.00
2018-05-18T08:51:10.195Z,28.37
2018-05-18T08:53:37.608Z,21.77
2018-05-18T08:56:05.009Z,16.30
2018-05-18T08:58:32.407Z,23.00
2018-05-18T09:00:59.804Z,20.53
2018-05-18T09:03:27.231Z,20.08
2018-05-18T09:05:54.618Z,24.37
2018-05-18T09:08:22.027Z,34.00
2018-05-18T09:10:49.417Z,22.20
2018-05-18T09:13:16.837Z,27.90
2018-05-18T09:15:44.222Z,21.60
2018-05-18T09:18:11.627Z,18.70
2018-05-18T09:20:39.025Z,24.70
2018-05-18T09:23:07.393Z,17.50
2018-05-18T09:25:34.783Z,18.53
2018-05-18T09:28:02.225Z,19.97
2018-05-18T09:30:29.716Z,18.00
2018-05-18T09:32:57.125Z,27.00
2018-05-18T09:35:24.510Z,25.03
2018-05-18T09:37:52.341Z,27.65
2018-05-18T09:40:19.754Z,28.37
2018-05-18T09:42:47.479Z,23.67
2018-05-18T09:45:14.915Z,22.97
2018-05-18T09:47:42.359Z,20.27
2018-05-18T09:50:10.872Z,17.83
2018-05-18T09:52:38.263Z,25.17
2018-05-18T09:55:05.734Z,23.60
2018-05-18T09:57:33.611Z,19.67
2018-05-18T10:00:01.015Z,21.10
2018-05-18T10:02:28.824Z,24.52
2018-05-18T10:04:57.000Z,19.40
2018-05-18T10:07:24.396Z,15.05
2018-05-18T10:09:51.786Z,28.97
2018-05-18T10:12:19.199Z,19.90
2018-05-18T10:14:46.577Z,24.70
2018-05-18T10:17:13.976Z,16.27
2018-05-18T10:19:41.393Z,17.27
2018-05-18T10:22:08.780Z,23.00
2018-05-18T10:24:36.177Z,24.53
2018-05-18T10:27:03.645Z,20.20
2018-05-18T10:29:31.012Z,23.73
2018-05-18T10:31:58.415Z,25.37
2018-05-18T10:34:25.823Z,23.70
2018-05-18T10:36:53.435Z,21.77
2018-05-18T10:39:20.843Z,26.67
2018-05-18T10:41:48.245Z,15.30
2018-05-18T10:44:15.630Z,20.27
2018-05-18T10:46:43.026Z,16.13
2018-05-18T10:49:11.097Z,20.60
2018-05-18T10:51:38.487Z,21.00
2018-05-18T10:54:05.948Z,19.37
2018-05-18T10:56:33.348Z,17.07
2018-05-18T10:59:00.736Z,21.77
2018-05-18T11:01:28.132Z,23.37
2018-05-18T11:03:55.541Z,17.33
2018-05-18T11:06:22.945Z,14.55
2018-05-18T11:08:50.462Z,13.87
2018-05-18T11:11:17.875Z,24.03
2018-05-18T11:13:45.351Z,18.37
2018-05-18T11:16:12.759Z,16.90
2018-05-18T11:18:40.152Z,22.87
2018-05-18T11:21:07.818Z,16.02
2018-05-18T11:23:35.295Z,19.37
2018-05-18T11:26:02.692Z,23.87
2018-05-18T11:28:30.084Z,22.83
2018-05-18T11:30:57.588Z,18.63
2018-05-18T11:33:24.991Z,11.90
2018-05-18T11:35:52.383Z,17.83
2018-05-18T11:38:19.812Z,20.35
2018-05-18T11:40:47.197Z,16.53
2018-05-18T11:43:14.589Z,18.70
2018-05-18T11:45:42.532Z,17.50
2018-05-18T11:48:10.025Z,16.17
2018-05-18T11:50:37.327Z,22.30
2018-05-18T11:53:04.713Z,14.23
2018-05-18T11:55:32.104Z,21.42
2018-05-18T11:57:59.535Z,22.17
2018-05-18T12:00:26.929Z,21.80
2018-05-18T12:02:54.392Z,14.50
2018-05-18T12:05:22.450Z,17.67
2018-05-18T12:07:49.872Z,21.60
2018-05-18T12:10:17.267Z,15.43
2018-05-18T12:12:44.651Z,19.43
2018-05-18T12:15:12.210Z,14.27
2018-05-18T12:17:39.630Z,19.08
2018-05-18T12:20:07.943Z,17.75
2018-05-18T12:22:35.506Z,15.23
2018-05-18T12:25:02.920Z,20.00
2018-05-18T12:27:30.314Z,20.65
2018-05-18T12:29:58.320Z,18.40
2018-05-18T12:32:28.051Z,23.92
2018-05-18T12:34:55.444Z,19.93
2018-05-18T12:37:22.901Z,14.33
2018-05-18T12:39:50.292Z,19.20
2018-05-18T12:42:17.700Z,20.52
2018-05-18T12:44:45.219Z,18.10
2018-05-18T12:47:12.548Z,14.17
2018-05-18T12:49:39.953Z,18.50
2018-05-18T12:52:07.352Z,18.40
2018-05-18T12:54:34.891Z,21.70
2018-05-18T12:57:02.298Z,26.13
2018-05-18T12:59:29.707Z,14.03
2018-05-18T13:01:57.072Z,14.40
2018-05-18T13:04:24.520Z,15.27
2018-05-18T13:06:51.914Z,12.77
2018-05-18T13:09:19.319Z,18.50
2018-05-18T13:11:46.752Z,19.43
2018-05-18T13:14:14.137Z,16.20
2018-05-18T13:16:41.526Z,19.20
2018-05-18T13:19:08.937Z,15.17
2018-05-18T13:21:37.217Z,13.43
2018-05-18T13:24:04.621Z,17.33
2018-05-18T13:26:32.003Z,19.10
2018-05-18T13:28:59.484Z,9.85
2018-05-18T13:31:26.852Z,12.67
2018-05-18T13:33:54.472Z,17.50
2018-05-18T13:36:22.591Z,17.43
2018-05-18T13:38:50.077Z,16.07
2018-05-18T13:41:17.896Z,18.60
2018-05-18T13:43:45.316Z,14.70
2018-05-18T13:46:12.921Z,27.03
2018-05-18T13:48:41.776Z,16.20
2018-05-18T13:51:09.180Z,21.03
2018-05-18T13:53:37.132Z,16.50
2018-05-18T13:56:04.972Z,19.17
2018-05-18T13:58:32.392Z,13.73
2018-05-18T14:00:59.769Z,15.50
2018-05-18T14:03:27.164Z,15.50
2018-05-18T14:05:54.559Z,16.20
2018-05-18T14:08:22.001Z,14.83
2018-05-18T14:10:50.076Z,20.87
2018-05-18T14:13:17.472Z,17.40
2018-05-18T14:15:44.888Z,14.63
2018-05-18T14:18:12.640Z,15.30
2018-05-18T14:20:40.045Z,18.47
2018-05-18T14:23:08.241Z,15.60
2018-05-18T14:25:36.107Z,11.50
2018-05-18T14:28:03.501Z,13.20
2018-05-18T14:30:31.415Z,14.73
2018-05-18T14:32:58.972Z,16.13
2018-05-18T14:35:26.376Z,17.80
2018-05-18T14:37:53.821Z,17.53
2018-05-18T14:40:21.178Z,20.13
2018-05-18T14:42:48.657Z,17.83
2018-05-18T14:45:16.057Z,16.50
2018-05-18T14:47:43.451Z,17.27
2018-05-18T14:50:10.880Z,18.15
2018-05-18T14:52:39.259Z,19.43
2018-05-18T14:55:06.652Z,17.20
2018-05-18T14:57:34.096Z,16.53
2018-05-18T15:00:01.495Z,19.20
2018-05-18T15:02:28.892Z,25.00
2018-05-18T15:04:56.290Z,16.07
2018-05-18T15:07:23.909Z,17.80
2018-05-18T15:09:51.307Z,19.23
2018-05-18T15:12:19.730Z,11.67
2018-05-18T15:14:47.142Z,12.87
2018-05-18T15:17:14.520Z,15.67
2018-05-18T15:19:41.934Z,20.93
2018-05-18T15:22:09.362Z,22.20
2018-05-18T15:24:36.787Z,17.77
2018-05-18T15:27:04.208Z,15.83
2018-05-18T15:29:31.592Z,21.40
2018-05-18T15:31:59.000Z,14.43
2018-05-18T15:34:27.270Z,21.17
2018-05-18T15:36:54.663Z,25.33
2018-05-18T15:39:22.056Z,16.80
2018-05-18T15:41:49.452Z,21.33
2018-05-18T15:44:16.863Z,19.33
2018-05-18T15:46:45.165Z,16.63
2018-05-18T15:49:12.551Z,13.47
2018-05-18T15:51:39.946Z,21.07
2018-05-18T15:54:07.334Z,16.77
2018-05-18T15:56:34.743Z,14.67
2018-05-18T15:59:02.717Z,15.75
2018-05-18T16:01:30.116Z,17.02
2018-05-18T16:03:58.110Z,14.20
2018-05-18T16:06:25.604Z,16.20
2018-05-18T16:08:53.007Z,11.40
2018-05-18T16:11:20.400Z,18.73
2018-05-18T16:13:47.804Z,21.90
2018-05-18T16:16:15.244Z,11.27
2018-05-18T16:18:42.632Z,20.35
2018-05-18T16:21:10.028Z,15.87
2018-05-18T16:23:37.424Z,16.27
2018-05-18T16:26:05.343Z,13.60
2018-05-18T16:28:32.737Z,15.03
2018-05-18T16:31:00.155Z,16.50
2018-05-18T16:33:27.582Z,18.67
2018-05-18T16:35:54.966Z,17.27
2018-05-18T16:38:22.379Z,12.10
2018-05-18T16:40:49.763Z,15.00
2018-05-18T16:43:17.169Z,16.50
2018-05-18T16:45:44.567Z,14.32
2018-05-18T16:48:11.970Z,20.83
2018-05-18T16:50:39.379Z,15.93
2018-05-18T16:53:06.860Z,14.93
2018-05-18T16:55:34.245Z,15.50
2018-05-18T16:58:01.735Z,20.93
2018-05-18T17:00:29.041Z,17.08
2018-05-18T17:02:56.443Z,19.60
2018-05-18T17:05:24.157Z,14.73
2018-05-18T17:07:51.565Z,14.83
2018-05-18T17:10:19.120Z,11.30
2018-05-18T17:12:46.520Z,15.47
2018-05-18T17:15:13.928Z,16.25
2018-05-18T17:17:41.331Z,20.13
2018-05-18T17:20:09.133Z,19.20
2018-05-18T17:22:36.542Z,13.98
2018-05-18T17:25:03.944Z,13.80
2018-05-18T17:27:32.000Z,19.08
2018-05-18T17:29:59.511Z,17.07
2018-05-18T17:32:26.928Z,18.85
2018-05-18T17:34:54.323Z,25.90
2018-05-18T17:37:21.721Z,24.23
2018-05-18T17:39:49.459Z,17.90
2018-05-18T17:42:16.881Z,19.00
2018-05-18T17:44:44.528Z,22.43
2018-05-18T17:47:12.371Z,20.47
2018-05-18T17:49:39.782Z,26.47
2018-05-18T17:52:07.183Z,19.87
2018-05-18T17:54:34.698Z,24.07
2018-05-18T17:57:02.088Z,21.17
2018-05-18T17:59:29.499Z,24.20
2018-05-18T18:01:57.538Z,20.50
2018-05-18T18:04:25.040Z,21.10
2018-05-18T18:06:52.800Z,20.30
2018-05-18T18:09:20.199Z,20.90
2018-05-18T18:11:47.720Z,21.77
2018-05-18T18:14:15.128Z,33.23
2018-05-18T18:16:42.524Z,26.40
2018-05-18T18:19:10.537Z,24.10
2018-05-18T18:21:38.623Z,20.70
2018-05-18T18:24:06.028Z,27.70
2018-05-18T18:26:35.285Z,26.98
2018-05-18T18:29:02.696Z,22.90
2018-05-18T18:31:31.008Z,26.13
2018-05-18T18:34:00.066Z,19.63
2018-05-18T18:36:28.244Z,23.25
2018-05-18T18:38:56.170Z,25.47
2018-05-18T18:41:23.620Z,20.67
2018-05-18T18:43:51.025Z,25.00
2018-05-18T18:46:18.419Z,23.70
2018-05-18T18:48:46.576Z,28.60
2018-05-18T18:51:14.774Z,22.52
2018-05-18T18:53:42.274Z,24.30
2018-05-18T18:56:09.772Z,21.43
2018-05-18T18:58:37.185Z,23.53
2018-05-18T19:01:04.943Z,24.00
2018-05-18T19:03:32.916Z,23.00
2018-05-18T19:06:01.428Z,19.13
2018-05-18T19:08:28.889Z,24.37
2018-05-18T19:10:57.303Z,32.17
2018-05-18T19:13:24.704Z,22.30
2018-05-18T19:15:52.169Z,24.10
2018-05-18T19:18:19.581Z,23.37
2018-05-18T19:20:47.052Z,24.50
2018-05-18T19:23:14.527Z,26.83
2018-05-18T19:25:41.939Z,25.47
2018-05-18T19:28:09.353Z,20.87
2018-05-18T19:30:37.901Z,24.70
2018-05-18T19:33:05.587Z,24.37
2018-05-18T19:35:33.863Z,17.40
2018-05-18T19:38:01.241Z,23.90
2018-05-18T19:40:28.676Z,25.10
2018-05-18T19:42:56.113Z,25.92
2018-05-18T19:45:23.532Z,23.73
2018-05-18T19:47:51.648Z,26.53
2018-05-18T19:50:19.038Z,21.97
2018-05-18T19:52:46.421Z,25.00
2018-05-18T19:55:13.839Z,23.27
2018-05-18T19:57:41.232Z,22.43
2018-05-18T20:00:09.615Z,22.27
2018-05-18T20:02:37.005Z,27.27
2018-05-18T20:05:04.435Z,32.80
2018-05-18T20:07:31.824Z,32.78
2018-05-18T20:09:59.220Z,25.13
2018-05-18T20:12:26.620Z,30.40
2018-05-18T20:14:54.299Z,29.77
2018-05-18T20:17:21.675Z,28.13
2018-05-18T20:19:49.131Z,23.93
2018-05-18T20:22:16.464Z,27.00
2018-05-18T20:24:44.028Z,22.63
2018-05-18T20:27:11.424Z,27.40
2018-05-18T20:29:38.813Z,24.07
2018-05-18T20:32:06.221Z,22.80
2018-05-18T20:34:33.620Z,19.63
2018-05-18T20:37:01.027Z,27.47
2018-05-18T20:39:28.425Z,32.13
2018-05-18T20:41:55.816Z,27.80
2018-05-18T20:44:23.374Z,25.95
2018-05-18T20:46:50.770Z,27.13
2018-05-18T20:49:18.436Z,31.03
2018-05-18T20:51:47.357Z,32.50
2018-05-18T20:54:14.698Z,27.60
2018-05-18T20:56:42.096Z,21.37
2018-05-18T20:59:09.732Z,28.40
2018-05-18T21:01:37.111Z,26.80
2018-05-18T21:04:04.738Z,26.60
2018-05-18T21:06:32.136Z,21.70
2018-05-18T21:08:59.599Z,26.00
2018-05-18T21:11:27.004Z,23.15
2018-05-18T21:13:55.237Z,31.03
2018-05-18T21:16:23.272Z,24.23
2018-05-18T21:18:50.665Z,25.23
2018-05-18T21:21:18.078Z,25.67
2018-05-18T21:23:45.463Z,28.50
2018-05-18T21:26:13.132Z,26.62
2018-05-18T21:28:40.532Z,24.27
2018-05-18T21:31:07.924Z,33.03
2018-05-18T21:33:35.859Z,22.70
2018-05-18T21:36:03.263Z,25.70
2018-05-18T21:38:30.663Z,24.23
2018-05-18T21:40:58.260Z,26.30
2018-05-18T21:43:25.703Z,26.10
2018-05-18T21:45:53.090Z,23.43
2018-05-18T21:48:20.500Z,21.00
2018-05-18T21:50:47.884Z,26.73
2018-05-18T21:53:15.291Z,28.97
2018-05-18T21:55:43.733Z,33.20
2018-05-18T21:58:11.180Z,29.33
2018-05-18T22:02:41.684Z,28.83
2018-05-18T22:05:09.271Z,28.40
2018-05-18T22:07:36.667Z,27.83
2018-05-18T22:10:04.127Z,21.93
2018-05-18T22:12:31.537Z,28.60
2018-05-18T22:14:59.219Z,34.03
2018-05-18T22:17:26.606Z,31.87
2018-05-18T22:19:54.802Z,33.07
2018-05-18T22:22:22.220Z,25.27
2018-05-18T22:24:49.616Z,22.60
2018-05-18T22:27:17.029Z,21.33
2018-05-18T22:29:45.461Z,28.40
2018-05-18T22:32:12.873Z,27.47
2018-05-18T22:34:40.265Z,22.90
2018-05-18T22:37:07.701Z,27.30
2018-05-18T22:39:35.371Z,24.43
2018-05-18T22:42:03.361Z,26.85
2018-05-18T22:44:30.763Z,26.20
2018-05-18T22:46:58.177Z,22.90
2018-05-18T22:49:25.575Z,28.33
2018-05-18T22:51:52.959Z,21.03
2018-05-18T22:54:20.780Z,22.17
2018-05-18T22:56:48.384Z,26.47
2018-05-18T22:59:15.792Z,21.93
2018-05-18T23:01:43.189Z,23.97
2018-05-18T23:04:11.450Z,26.57
2018-05-18T23:06:38.824Z,22.03
2018-05-18T23:09:06.232Z,23.12
2018-05-18T23:11:33.760Z,24.13
2018-05-18T23:14:01.162Z,21.60
2018-05-18T23:16:28.547Z,21.83
2018-05-18T23:18:55.953Z,24.43
2018-05-18T23:21:23.352Z,24.50
2018-05-18T23:23:50.760Z,20.88
2018-05-18T23:26:18.156Z,22.90
2018-05-18T23:28:45.711Z,22.53
2018-05-18T23:31:13.196Z,22.37
2018-05-18T23:33:41.226Z,27.37
2018-05-18T23:36:08.612Z,28.63
2018-05-18T23:38:36.333Z,20.67
2018-05-18T23:41:03.737Z,28.17
2018-05-18T23:43:31.155Z,24.33
2018-05-18T23:45:58.650Z,23.58
2018-05-18T23:48:26.054Z,21.62
2018-05-18T23:50:53.536Z,20.70
2018-05-18T23:53:20.926Z,24.60
2018-05-18T23:55:48.988Z,22.90
2018-05-18T23:58:16.396Z,20.47
